Terminal Aerodrome Forecast
Issued by NWS Cleveland, OH

Home | Current Version | Previous Version | Graphics & Text | Print | Product List | Glossary On
Versions: 1 2 3 4 5 6 7 8 9 10 11 12 13 14 15 16 17
000
FTUS41 KCLE 230532
TAFMFD
TAF
KMFD 230532Z 2306/2406 VRB03KT P6SM SCT250
     FM231000 21005KT P6SM BKN100
     FM231500 22009KT P6SM BKN070
     FM232300 22008KT P6SM SCT060=

USA.gov is the U.S. government's official web portal to all federal, state and local government web resources and services.